sensor_id;sensor_type;location;lat;lon;timestamp;P1;durP1;ratioP1;P2;durP2;ratioP2
42846;SDS011;75159;49.916;14.536;2024-03-29T00:09:25;1.75;;;1.25;;
42846;SDS011;75159;49.916;14.536;2024-03-29T00:19:45;1.58;;;1.10;;
42846;SDS011;75159;49.916;14.536;2024-03-29T00:30:05;2.47;;;1.00;;
42846;SDS011;75159;49.916;14.536;2024-03-29T00:40:26;0.85;;;0.65;;
42846;SDS011;75159;49.916;14.536;2024-03-29T00:50:46;4.40;;;0.90;;
42846;SDS011;75159;49.916;14.536;2024-03-29T01:01:05;1.42;;;0.90;;
42846;SDS011;75159;49.916;14.536;2024-03-29T01:11:25;1.75;;;1.10;;
42846;SDS011;75159;49.916;14.536;2024-03-29T01:21:45;1.40;;;1.05;;
42846;SDS011;75159;49.916;14.536;2024-03-29T01:32:06;0.80;;;0.80;;
42846;SDS011;75159;49.916;14.536;2024-03-29T01:42:26;2.92;;;1.00;;
42846;SDS011;75159;49.916;14.536;2024-03-29T01:52:46;2.28;;;1.38;;
42846;SDS011;75159;49.916;14.536;2024-03-29T02:03:07;1.02;;;0.80;;
42846;SDS011;75159;49.916;14.536;2024-03-29T02:13:33;1.10;;;0.95;;
42846;SDS011;75159;49.916;14.536;2024-03-29T02:24:08;1.15;;;0.90;;
42846;SDS011;75159;49.916;14.536;2024-03-29T02:34:29;5.18;;;2.60;;
42846;SDS011;75159;49.916;14.536;2024-03-29T02:44:49;4.13;;;1.98;;
42846;SDS011;75159;49.916;14.536;2024-03-29T02:55:09;2.53;;;1.50;;
42846;SDS011;75159;49.916;14.536;2024-03-29T03:05:32;2.88;;;1.50;;
42846;SDS011;75159;49.916;14.536;2024-03-29T03:15:54;2.67;;;1.40;;
42846;SDS011;75159;49.916;14.536;2024-03-29T03:26:14;1.83;;;1.17;;
42846;SDS011;75159;49.916;14.536;2024-03-29T03:36:34;4.32;;;1.42;;
42846;SDS011;75159;49.916;14.536;2024-03-29T03:46:55;2.90;;;1.55;;
42846;SDS011;75159;49.916;14.536;2024-03-29T03:57:15;1.63;;;1.27;;
42846;SDS011;75159;49.916;14.536;2024-03-29T04:07:35;1.65;;;1.30;;
42846;SDS011;75159;49.916;14.536;2024-03-29T04:17:56;4.82;;;1.30;;
42846;SDS011;75159;49.916;14.536;2024-03-29T04:28:15;1.00;;;0.90;;
42846;SDS011;75159;49.916;14.536;2024-03-29T04:38:35;1.75;;;1.33;;
42846;SDS011;75159;49.916;14.536;2024-03-29T04:48:55;1.45;;;0.95;;
42846;SDS011;75159;49.916;14.536;2024-03-29T04:59:15;3.08;;;1.17;;
42846;SDS011;75159;49.916;14.536;2024-03-29T05:09:37;1.25;;;1.08;;
42846;SDS011;75159;49.916;14.536;2024-03-29T05:19:57;1.60;;;0.85;;
42846;SDS011;75159;49.916;14.536;2024-03-29T05:30:17;3.33;;;0.88;;
42846;SDS011;75159;49.916;14.536;2024-03-29T05:40:37;2.75;;;1.98;;
42846;SDS011;75159;49.916;14.536;2024-03-29T05:50:58;2.22;;;1.35;;
42846;SDS011;75159;49.916;14.536;2024-03-29T06:01:18;3.97;;;3.00;;
42846;SDS011;75159;49.916;14.536;2024-03-29T06:11:37;3.25;;;1.52;;
42846;SDS011;75159;49.916;14.536;2024-03-29T06:21:57;3.22;;;1.42;;
42846;SDS011;75159;49.916;14.536;2024-03-29T06:32:17;0.35;;;0.35;;
42846;SDS011;75159;49.916;14.536;2024-03-29T06:42:38;1.02;;;0.30;;
42846;SDS011;75159;49.916;14.536;2024-03-29T06:52:58;0.73;;;0.40;;
42846;SDS011;75159;49.916;14.536;2024-03-29T07:03:18;0.70;;;0.40;;
42846;SDS011;75159;49.916;14.536;2024-03-29T07:13:41;0.60;;;0.30;;
42846;SDS011;75159;49.916;14.536;2024-03-29T07:24:00;0.65;;;0.40;;
42846;SDS011;75159;49.916;14.536;2024-03-29T07:34:20;3.28;;;0.43;;
42846;SDS011;75159;49.916;14.536;2024-03-29T07:44:40;4.07;;;0.52;;
42846;SDS011;75159;49.916;14.536;2024-03-29T07:55:00;0.85;;;0.82;;
42846;SDS011;75159;49.916;14.536;2024-03-29T08:05:20;2.33;;;0.55;;
42846;SDS011;75159;49.916;14.536;2024-03-29T08:15:40;0.63;;;0.40;;
42846;SDS011;75159;49.916;14.536;2024-03-29T08:26:00;1.75;;;1.13;;
42846;SDS011;75159;49.916;14.536;2024-03-29T08:36:21;1.50;;;0.57;;
42846;SDS011;75159;49.916;14.536;2024-03-29T08:46:40;0.47;;;0.20;;
42846;SDS011;75159;49.916;14.536;2024-03-29T08:57:00;1.42;;;0.28;;
42846;SDS011;75159;49.916;14.536;2024-03-29T09:07:23;0.82;;;0.20;;
42846;SDS011;75159;49.916;14.536;2024-03-29T09:17:43;0.10;;;0.10;;
42846;SDS011;75159;49.916;14.536;2024-03-29T09:28:03;1.58;;;0.38;;
42846;SDS011;75159;49.916;14.536;2024-03-29T09:38:23;4.38;;;0.65;;
42846;SDS011;75159;49.916;14.536;2024-03-29T09:48:44;0.85;;;0.30;;
42846;SDS011;75159;49.916;14.536;2024-03-29T09:59:07;0.50;;;0.35;;
42846;SDS011;75159;49.916;14.536;2024-03-29T10:09:27;0.73;;;0.47;;
42846;SDS011;75159;49.916;14.536;2024-03-29T10:19:49;0.98;;;0.30;;
42846;SDS011;75159;49.916;14.536;2024-03-29T10:30:10;1.10;;;0.28;;
42846;SDS011;75159;49.916;14.536;2024-03-29T10:40:31;1.50;;;0.40;;
42846;SDS011;75159;49.916;14.536;2024-03-29T10:50:52;0.45;;;0.20;;
42846;SDS011;75159;49.916;14.536;2024-03-29T11:01:16;0.10;;;0.10;;
42846;SDS011;75159;49.916;14.536;2024-03-29T11:11:40;0.40;;;0.20;;
42846;SDS011;75159;49.916;14.536;2024-03-29T11:22:04;0.10;;;0.10;;
42846;SDS011;75159;49.916;14.536;2024-03-29T11:32:37;0.28;;;0.22;;
42846;SDS011;75159;49.916;14.536;2024-03-29T11:42:58;1.75;;;0.40;;
42846;SDS011;75159;49.916;14.536;2024-03-29T11:53:18;0.13;;;0.13;;
42846;SDS011;75159;49.916;14.536;2024-03-29T12:03:38;0.30;;;0.30;;
42846;SDS011;75159;49.916;14.536;2024-03-29T12:13:59;1.75;;;0.65;;
42846;SDS011;75159;49.916;14.536;2024-03-29T12:24:19;1.58;;;0.73;;
42846;SDS011;75159;49.916;14.536;2024-03-29T12:34:40;1.13;;;0.75;;
42846;SDS011;75159;49.916;14.536;2024-03-29T12:45:00;0.40;;;0.40;;
42846;SDS011;75159;49.916;14.536;2024-03-29T12:55:20;1.20;;;0.30;;
42846;SDS011;75159;49.916;14.536;2024-03-29T13:05:40;0.10;;;0.10;;
42846;SDS011;75159;49.916;14.536;2024-03-29T13:16:00;0.55;;;0.30;;
42846;SDS011;75159;49.916;14.536;2024-03-29T13:26:20;0.55;;;0.40;;
42846;SDS011;75159;49.916;14.536;2024-03-29T13:36:40;0.32;;;0.20;;
42846;SDS011;75159;49.916;14.536;2024-03-29T13:47:00;0.30;;;0.30;;
42846;SDS011;75159;49.916;14.536;2024-03-29T13:57:20;0.50;;;0.32;;
42846;SDS011;75159;49.916;14.536;2024-03-29T14:07:40;0.20;;;0.20;;
42846;SDS011;75159;49.916;14.536;2024-03-29T14:18:00;0.40;;;0.20;;
42846;SDS011;75159;49.916;14.536;2024-03-29T14:28:20;0.80;;;0.20;;
42846;SDS011;75159;49.916;14.536;2024-03-29T14:38:40;0.52;;;0.30;;
42846;SDS011;75159;49.916;14.536;2024-03-29T14:49:00;0.38;;;0.30;;
42846;SDS011;75159;49.916;14.536;2024-03-29T14:59:24;0.50;;;0.40;;
42846;SDS011;75159;49.916;14.536;2024-03-29T15:09:45;1.30;;;0.40;;
42846;SDS011;75159;49.916;14.536;2024-03-29T15:20:08;0.40;;;0.30;;
42846;SDS011;75159;49.916;14.536;2024-03-29T15:30:29;0.50;;;0.50;;
42846;SDS011;75159;49.916;14.536;2024-03-29T15:40:52;0.50;;;0.40;;
42846;SDS011;75159;49.916;14.536;2024-03-29T15:51:13;0.40;;;0.40;;
42846;SDS011;75159;49.916;14.536;2024-03-29T16:01:35;1.33;;;0.80;;
42846;SDS011;75159;49.916;14.536;2024-03-29T16:11:55;0.60;;;0.52;;
42846;SDS011;75159;49.916;14.536;2024-03-29T16:22:15;1.80;;;0.40;;
42846;SDS011;75159;49.916;14.536;2024-03-29T16:32:35;0.60;;;0.40;;
42846;SDS011;75159;49.916;14.536;2024-03-29T16:42:55;0.60;;;0.60;;
42846;SDS011;75159;49.916;14.536;2024-03-29T16:53:15;0.82;;;0.77;;
42846;SDS011;75159;49.916;14.536;2024-03-29T17:03:35;6.45;;;1.30;;
42846;SDS011;75159;49.916;14.536;2024-03-29T17:13:55;2.40;;;1.25;;
42846;SDS011;75159;49.916;14.536;2024-03-29T17:24:16;2.85;;;1.60;;
42846;SDS011;75159;49.916;14.536;2024-03-29T17:34:36;3.17;;;1.85;;
42846;SDS011;75159;49.916;14.536;2024-03-29T17:44:56;3.65;;;1.70;;
42846;SDS011;75159;49.916;14.536;2024-03-29T17:55:16;4.22;;;1.42;;
42846;SDS011;75159;49.916;14.536;2024-03-29T18:05:36;3.47;;;1.50;;
42846;SDS011;75159;49.916;14.536;2024-03-29T18:15:56;3.38;;;1.20;;
42846;SDS011;75159;49.916;14.536;2024-03-29T18:26:16;3.03;;;2.00;;
42846;SDS011;75159;49.916;14.536;2024-03-29T18:36:36;3.30;;;1.88;;
42846;SDS011;75159;49.916;14.536;2024-03-29T18:46:56;2.10;;;1.50;;
42846;SDS011;75159;49.916;14.536;2024-03-29T18:57:16;4.28;;;1.83;;
42846;SDS011;75159;49.916;14.536;2024-03-29T19:07:36;4.35;;;1.75;;
42846;SDS011;75159;49.916;14.536;2024-03-29T19:17:56;3.17;;;1.50;;
42846;SDS011;75159;49.916;14.536;2024-03-29T19:28:16;5.53;;;1.73;;
42846;SDS011;75159;49.916;14.536;2024-03-29T19:38:36;3.17;;;2.25;;
42846;SDS011;75159;49.916;14.536;2024-03-29T19:48:56;3.50;;;2.08;;
42846;SDS011;75159;49.916;14.536;2024-03-29T19:59:16;2.80;;;1.90;;
42846;SDS011;75159;49.916;14.536;2024-03-29T20:09:36;5.43;;;2.10;;
42846;SDS011;75159;49.916;14.536;2024-03-29T20:19:56;2.67;;;1.20;;
42846;SDS011;75159;49.916;14.536;2024-03-29T20:30:16;2.70;;;1.25;;
42846;SDS011;75159;49.916;14.536;2024-03-29T20:40:36;4.28;;;1.92;;
42846;SDS011;75159;49.916;14.536;2024-03-29T20:50:56;2.25;;;1.45;;
42846;SDS011;75159;49.916;14.536;2024-03-29T21:01:17;3.33;;;1.30;;
42846;SDS011;75159;49.916;14.536;2024-03-29T21:11:55;3.25;;;1.67;;
42846;SDS011;75159;49.916;14.536;2024-03-29T21:22:15;2.63;;;1.08;;
42846;SDS011;75159;49.916;14.536;2024-03-29T21:32:35;2.55;;;1.08;;
42846;SDS011;75159;49.916;14.536;2024-03-29T21:42:55;4.22;;;1.33;;
42846;SDS011;75159;49.916;14.536;2024-03-29T21:53:15;3.10;;;1.60;;
42846;SDS011;75159;49.916;14.536;2024-03-29T22:03:36;2.55;;;1.33;;
42846;SDS011;75159;49.916;14.536;2024-03-29T22:13:56;8.27;;;4.03;;
42846;SDS011;75159;49.916;14.536;2024-03-29T22:24:16;3.63;;;2.00;;
42846;SDS011;75159;49.916;14.536;2024-03-29T22:34:36;5.78;;;3.05;;
42846;SDS011;75159;49.916;14.536;2024-03-29T22:44:56;5.60;;;1.90;;
42846;SDS011;75159;49.916;14.536;2024-03-29T22:55:16;4.05;;;2.10;;
42846;SDS011;75159;49.916;14.536;2024-03-29T23:05:36;4.40;;;2.00;;
42846;SDS011;75159;49.916;14.536;2024-03-29T23:15:56;3.15;;;1.80;;
42846;SDS011;75159;49.916;14.536;2024-03-29T23:26:17;3.55;;;1.50;;
42846;SDS011;75159;49.916;14.536;2024-03-29T23:36:37;3.60;;;1.60;;
42846;SDS011;75159;49.916;14.536;2024-03-29T23:46:57;4.22;;;1.40;;
42846;SDS011;75159;49.916;14.536;2024-03-29T23:57:17;4.93;;;1.88;;
